Time;durP1;ratioP1;P1;durP2;ratioP2;P2;SDS_P1;SDS_P2;PMS_P1;PMS_P2;Temp;Humidity;BMP_temperature;BMP_pressure;BME280_temperature;BME280_humidity;BME280_pressure;Samples;Min_cycle;Max_cycle;Signal;HPM_P1;HPM_P2
2023/07/19 00:01:57;;;;;;;2.38;1.50;;;20.20;99.90;;;;;;5112692;27;20215;-76
2023/07/19 00:04:24;;;;;;;2.43;1.60;;;20.20;99.90;;;;;;5126485;27;20232;-75
2023/07/19 00:06:50;;;;;;;4.23;1.70;;;20.20;99.90;;;;;;5126570;27;20312;-75
2023/07/19 00:09:19;;;;;;;2.00;1.90;;;20.10;99.90;;;;;;5126607;27;20316;-75
2023/07/19 00:11:47;;;;;;;1.50;1.40;;;20.10;99.90;;;;;;5126132;27;20201;-76
2023/07/19 00:14:14;;;;;;;2.70;1.67;;;20.00;99.90;;;;;;5126052;27;20201;-75
2023/07/19 00:16:41;;;;;;;2.25;2.05;;;20.10;99.90;;;;;;5126474;27;20669;-74
2023/07/19 00:19:08;;;;;;;2.03;1.67;;;20.00;99.90;;;;;;5134497;27;20618;-75
2023/07/19 00:21:34;;;;;;;1.57;1.50;;;20.00;99.90;;;;;;5147527;27;20287;-74
2023/07/19 00:24:01;;;;;;;1.92;1.83;;;20.00;99.90;;;;;;5147464;27;20288;-74
2023/07/19 00:26:30;;;;;;;1.70;1.60;;;20.10;99.90;;;;;;5147058;27;20211;-75
2023/07/19 00:28:57;;;;;;;3.63;1.70;;;20.10;99.90;;;;;;5125359;27;20307;-76
2023/07/19 00:31:23;;;;;;;1.67;1.57;;;19.90;99.90;;;;;;5105733;28;20305;-76
2023/07/19 00:33:50;;;;;;;2.63;1.93;;;19.80;99.90;;;;;;5105449;28;20242;-76
2023/07/19 00:36:17;;;;;;;2.17;1.77;;;19.80;99.90;;;;;;5113882;28;20598;-76
2023/07/19 00:38:44;;;;;;;1.77;1.67;;;19.80;99.90;;;;;;5125397;28;20684;-76
2023/07/19 00:41:11;;;;;;;2.93;2.10;;;19.80;99.90;;;;;;5125605;27;20236;-75
2023/07/19 00:43:39;;;;;;;2.40;2.20;;;19.70;99.90;;;;;;5128634;27;20231;-76
2023/07/19 00:46:08;;;;;;;2.17;1.80;;;19.70;99.90;;;;;;5128859;27;20202;-76
2023/07/19 00:48:35;;;;;;;2.17;1.90;;;19.60;99.90;;;;;;5128976;27;20233;-75
2023/07/19 00:51:02;;;;;;;3.83;1.50;;;19.50;99.90;;;;;;5121841;27;20209;-76
2023/07/19 00:53:29;;;;;;;1.87;1.63;;;19.50;99.90;;;;;;5110463;28;20270;-75
2023/07/19 00:55:56;;;;;;;2.83;1.57;;;19.50;99.90;;;;;;5109930;28;20214;-74
2023/07/19 00:58:24;;;;;;;1.83;1.73;;;19.50;99.90;;;;;;5109357;28;20244;-75
2023/07/19 01:00:53;;;;;;;2.93;1.90;;;19.50;99.90;;;;;;5109831;28;20210;-75
2023/07/19 01:03:20;;;;;;;1.93;1.80;;;19.40;99.90;;;;;;5110163;28;20205;-75
2023/07/19 01:05:47;;;;;;;2.00;1.90;;;19.40;99.90;;;;;;5109343;28;20202;-74
2023/07/19 01:08:15;;;;;;;1.50;1.40;;;19.40;99.90;;;;;;5109745;28;20222;-74
2023/07/19 01:10:42;;;;;;;1.90;1.30;;;19.30;99.90;;;;;;5109525;28;20695;-75
2023/07/19 01:13:12;;;;;;;2.00;1.90;;;19.30;99.90;;;;;;5113110;27;20667;-75
2023/07/19 01:15:40;;;;;;;4.00;2.33;;;19.20;99.90;;;;;;5130392;27;20232;-75
2023/07/19 01:18:09;;;;;;;2.23;1.53;;;19.20;99.90;;;;;;5129971;27;20213;-75
2023/07/19 01:20:36;;;;;;;1.67;1.50;;;19.20;99.90;;;;;;5129778;27;20605;-75
2023/07/19 01:23:04;;;;;;;3.60;1.97;;;19.20;99.90;;;;;;5129986;27;20209;-75
2023/07/19 01:25:31;;;;;;;2.03;1.80;;;19.20;99.90;;;;;;5127860;27;20648;-75
2023/07/19 01:27:58;;;;;;;2.20;2.00;;;19.10;99.90;;;;;;5129416;27;20229;-74
2023/07/19 01:30:25;;;;;;;2.07;1.87;;;19.10;99.90;;;;;;5129578;27;20316;-74
2023/07/19 01:32:52;;;;;;;3.10;1.83;;;19.10;99.90;;;;;;5129625;27;20217;-74
2023/07/19 01:35:19;;;;;;;2.80;2.20;;;19.10;99.90;;;;;;5129496;27;20245;-75
2023/07/19 01:37:46;;;;;;;2.30;2.13;;;19.10;99.90;;;;;;5129619;27;20312;-75
2023/07/19 01:40:15;;;;;;;1.80;1.70;;;19.10;99.90;;;;;;5129686;27;20205;-76
2023/07/19 01:42:41;;;;;;;2.00;1.83;;;19.00;99.90;;;;;;5129141;27;20305;-75
2023/07/19 01:45:09;;;;;;;2.20;1.90;;;19.00;99.90;;;;;;5128956;27;20318;-75
2023/07/19 01:47:36;;;;;;;1.90;1.80;;;19.00;99.90;;;;;;5129180;27;20212;-77
2023/07/19 01:50:03;;;;;;;2.00;1.90;;;19.00;99.90;;;;;;5113850;27;20210;-78
2023/07/19 01:52:30;;;;;;;2.87;2.00;;;18.90;99.90;;;;;;5108560;28;20224;-78
2023/07/19 01:54:57;;;;;;;1.90;1.80;;;18.90;99.90;;;;;;5108360;28;20727;-79
2023/07/19 01:57:25;;;;;;;2.73;1.80;;;18.90;99.90;;;;;;5108886;28;20209;-78
2023/07/19 01:59:52;;;;;;;3.57;2.10;;;18.90;99.90;;;;;;5108240;28;20333;-75
2023/07/19 02:02:19;;;;;;;3.70;2.10;;;18.90;99.90;;;;;;5108446;28;20743;-74
2023/07/19 02:04:46;;;;;;;2.37;1.97;;;18.90;99.90;;;;;;5108295;28;20209;-74
2023/07/19 02:07:13;;;;;;;2.67;2.43;;;18.90;99.90;;;;;;5108219;28;20234;-75
2023/07/19 02:09:41;;;;;;;2.87;2.23;;;18.90;99.90;;;;;;5114374;27;20353;-76
2023/07/19 02:12:09;;;;;;;2.97;2.10;;;18.90;99.90;;;;;;5128906;27;20212;-77
2023/07/19 02:14:37;;;;;;;2.23;2.03;;;18.90;99.90;;;;;;5128745;27;20208;-76
2023/07/19 02:17:05;;;;;;;4.00;2.30;;;18.90;99.90;;;;;;5128624;27;20670;-76
2023/07/19 02:19:32;;;;;;;2.10;2.00;;;18.90;99.90;;;;;;5129217;27;20299;-77
2023/07/19 02:21:59;;;;;;;4.10;2.10;;;18.80;99.90;;;;;;5128611;27;20321;-76
2023/07/19 02:24:26;;;;;;;3.53;2.00;;;18.80;99.90;;;;;;5128888;27;20202;-76
2023/07/19 02:26:52;;;;;;;3.07;2.57;;;18.70;99.90;;;;;;5128800;27;20372;-77
2023/07/19 02:29:19;;;;;;;2.30;2.10;;;18.70;99.90;;;;;;5128570;27;20239;-77
2023/07/19 02:31:47;;;;;;;2.07;1.90;;;18.70;99.90;;;;;;5125844;27;20212;-76
2023/07/19 02:34:18;;;;;;;2.17;2.07;;;18.70;99.90;;;;;;5108264;28;20300;-76
2023/07/19 02:36:45;;;;;;;2.17;1.97;;;18.70;99.90;;;;;;5107666;28;20243;-76
2023/07/19 02:39:12;;;;;;;2.60;1.97;;;18.70;99.90;;;;;;5107236;28;20206;-75
2023/07/19 02:41:39;;;;;;;2.30;2.10;;;18.70;99.90;;;;;;5107619;28;20230;-75
2023/07/19 02:44:06;;;;;;;3.30;2.47;;;18.70;99.90;;;;;;5107418;28;20205;-76
2023/07/19 02:46:33;;;;;;;2.53;1.97;;;18.70;99.90;;;;;;5107621;28;20237;-76
2023/07/19 02:49:01;;;;;;;2.47;2.27;;;18.70;99.90;;;;;;5114037;27;20328;-76
2023/07/19 02:51:28;;;;;;;2.60;2.40;;;18.80;99.90;;;;;;5128093;27;20280;-76
2023/07/19 02:53:54;;;;;;;3.40;2.47;;;18.80;99.90;;;;;;5127783;27;20617;-76
2023/07/19 02:56:21;;;;;;;3.80;2.30;;;18.70;99.90;;;;;;5128000;27;20219;-76
2023/07/19 02:58:48;;;;;;;4.27;2.60;;;18.70;99.90;;;;;;5127512;27;20256;-77
2023/07/19 03:01:15;;;;;;;2.63;2.20;;;18.70;99.90;;;;;;5127854;27;20297;-77
2023/07/19 03:03:42;;;;;;;2.50;2.30;;;18.70;99.90;;;;;;5127969;27;20209;-77
2023/07/19 03:06:11;;;;;;;2.57;2.10;;;18.80;99.90;;;;;;5126860;27;20232;-77
2023/07/19 03:08:37;;;;;;;2.60;2.23;;;18.70;99.90;;;;;;5128146;27;20682;-78
2023/07/19 03:11:06;;;;;;;2.57;1.97;;;18.70;99.90;;;;;;5127745;27;20208;-76
2023/07/19 03:13:33;;;;;;;2.73;2.17;;;18.80;99.90;;;;;;5127839;27;20210;-76
2023/07/19 03:16:00;;;;;;;2.93;2.37;;;18.70;99.90;;;;;;5127576;27;20213;-76
2023/07/19 03:18:27;;;;;;;5.30;2.47;;;18.70;99.90;;;;;;5113482;27;20210;-76
2023/07/19 03:20:58;;;;;;;2.20;2.10;;;18.60;99.90;;;;;;5127415;27;20252;-76
2023/07/19 03:23:27;;;;;;;2.77;2.30;;;18.60;99.90;;;;;;5127308;27;20296;-76
2023/07/19 03:25:57;;;;;;;3.73;2.10;;;18.60;99.90;;;;;;5126977;27;20213;-76
2023/07/19 03:28:26;;;;;;;5.10;2.80;;;18.60;99.90;;;;;;5126925;27;20200;-77
2023/07/19 03:30:54;;;;;;;2.53;2.40;;;18.70;99.90;;;;;;5126886;27;20328;-76
2023/07/19 03:33:22;;;;;;;3.77;2.60;;;18.70;99.90;;;;;;5126951;27;20207;-77
2023/07/19 03:35:49;;;;;;;3.47;2.33;;;18.70;99.90;;;;;;5126897;27;20212;-77
2023/07/19 03:38:16;;;;;;;3.67;2.63;;;18.70;99.90;;;;;;5126455;27;20637;-75
2023/07/19 03:40:44;;;;;;;2.77;1.97;;;18.60;99.90;;;;;;5127088;27;20310;-75
2023/07/19 03:43:11;;;;;;;2.30;2.10;;;18.60;99.90;;;;;;5126527;27;20878;-75
2023/07/19 03:45:39;;;;;;;2.30;2.10;;;18.60;99.90;;;;;;5126911;27;20284;-75
2023/07/19 03:48:07;;;;;;;4.33;2.23;;;18.70;99.90;;;;;;5126566;27;20659;-75
2023/07/19 03:50:34;;;;;;;2.47;2.20;;;18.70;99.90;;;;;;5106183;27;20902;-74
2023/07/19 03:53:01;;;;;;;2.90;2.47;;;18.70;99.90;;;;;;5106086;28;20662;-75
2023/07/19 03:55:28;;;;;;;2.80;2.60;;;18.80;99.90;;;;;;5105817;28;20626;-75
2023/07/19 03:57:56;;;;;;;5.47;3.07;;;18.80;99.90;;;;;;5105733;28;20270;-75
2023/07/19 04:00:23;;;;;;;5.03;4.40;;;18.90;99.90;;;;;;5105771;28;20212;-76
2023/07/19 04:02:50;;;;;;;4.63;4.23;;;18.90;99.90;;;;;;5117682;27;20201;-76
2023/07/19 04:05:17;;;;;;;6.47;4.67;;;18.80;99.90;;;;;;5126671;27;20344;-76
2023/07/19 04:07:44;;;;;;;7.93;4.33;;;18.80;99.90;;;;;;5126313;27;20212;-75
2023/07/19 04:10:11;;;;;;;6.30;5.70;;;18.80;99.90;;;;;;5126535;27;20236;-77
2023/07/19 04:12:38;;;;;;;11.10;8.07;;;18.80;99.90;;;;;;5126023;27;20664;-78
2023/07/19 04:15:08;;;;;;;11.50;7.87;;;18.80;99.90;;;;;;5106612;27;20325;-75
2023/07/19 04:17:34;;;;;;;9.07;7.20;;;18.80;99.90;;;;;;5104762;28;20263;-75
2023/07/19 04:20:01;;;;;;;4.57;3.97;;;18.90;99.90;;;;;;5121114;27;20217;-75
2023/07/19 04:22:28;;;;;;;3.40;3.20;;;18.90;99.90;;;;;;5126197;27;20292;-75
2023/07/19 04:24:55;;;;;;;2.93;2.60;;;19.00;99.90;;;;;;5126219;27;20208;-75
2023/07/19 04:27:22;;;;;;;4.00;2.27;;;19.00;99.90;;;;;;5126326;27;20213;-75
2023/07/19 04:29:49;;;;;;;2.03;1.93;;;19.00;99.90;;;;;;5125860;27;20229;-75
2023/07/19 04:32:17;;;;;;;2.57;2.37;;;19.10;99.90;;;;;;5126381;27;20204;-76
2023/07/19 04:34:44;;;;;;;4.00;2.47;;;19.20;99.90;;;;;;5126479;28;20296;-76
2023/07/19 04:37:11;;;;;;;2.13;2.00;;;19.10;99.90;;;;;;5126786;28;20241;-76
2023/07/19 04:39:38;;;;;;;4.20;2.20;;;19.20;99.90;;;;;;5126575;28;20216;-76
2023/07/19 04:42:05;;;;;;;3.70;2.23;;;19.20;99.90;;;;;;5126403;28;20296;-76
2023/07/19 04:44:32;;;;;;;2.03;1.93;;;19.20;99.90;;;;;;5126184;28;20201;-76
2023/07/19 04:46:59;;;;;;;2.60;2.50;;;19.10;99.90;;;;;;5126125;28;20209;-76
2023/07/19 04:49:27;;;;;;;4.37;3.07;;;19.20;99.90;;;;;;5126468;28;20269;-76
2023/07/19 04:51:54;;;;;;;2.50;2.30;;;19.20;99.90;;;;;;5109709;28;20694;-78
2023/07/19 04:54:21;;;;;;;2.50;2.30;;;19.20;99.90;;;;;;5104998;28;20618;-76
2023/07/19 04:56:49;;;;;;;2.23;2.03;;;19.20;99.90;;;;;;5105013;28;20836;-73
2023/07/19 04:59:16;;;;;;;2.47;1.90;;;19.20;99.90;;;;;;5104756;28;20328;-75
2023/07/19 05:01:43;;;;;;;1.77;1.60;;;19.20;99.90;;;;;;5105585;28;20633;-75
2023/07/19 05:04:09;;;;;;;1.83;1.67;;;19.30;99.90;;;;;;5105529;28;20292;-76
2023/07/19 05:06:38;;;;;;;1.50;1.40;;;19.30;99.90;;;;;;5104918;28;20244;-76
2023/07/19 05:09:05;;;;;;;1.70;1.60;;;19.40;99.90;;;;;;5106420;27;20330;-76
2023/07/19 05:11:32;;;;;;;1.13;1.13;;;19.40;99.90;;;;;;5105061;28;20202;-76
2023/07/19 05:13:59;;;;;;;1.33;1.23;;;19.40;99.90;;;;;;5105079;28;20757;-76
2023/07/19 05:16:26;;;;;;;1.47;1.43;;;19.40;99.90;;;;;;5105013;28;20573;-76
2023/07/19 05:18:56;;;;;;;4.83;1.70;;;19.40;99.90;;;;;;5105513;28;20210;-74
2023/07/19 05:21:23;;;;;;;3.07;1.57;;;19.30;99.90;;;;;;5114746;28;20210;-73
2023/07/19 05:23:51;;;;;;;3.23;1.60;;;19.30;99.90;;;;;;5125695;28;20296;-73
2023/07/19 05:26:18;;;;;;;2.13;1.40;;;19.30;99.90;;;;;;5125716;28;20292;-76
2023/07/19 05:28:46;;;;;;;2.00;1.90;;;19.30;99.90;;;;;;5127513;27;20227;-76
2023/07/19 05:31:13;;;;;;;2.13;1.90;;;19.40;99.90;;;;;;5129424;27;20667;-76
2023/07/19 05:33:40;;;;;;;1.70;1.60;;;19.40;99.90;;;;;;5129514;27;20212;-76
2023/07/19 05:36:07;;;;;;;2.63;1.97;;;19.50;99.90;;;;;;5129014;27;20209;-74
2023/07/19 05:38:35;;;;;;;1.60;1.50;;;19.50;99.90;;;;;;5128638;27;20585;-74
2023/07/19 05:41:04;;;;;;;1.67;1.57;;;19.40;99.90;;;;;;5129036;27;20497;-75
2023/07/19 05:43:32;;;;;;;2.40;1.80;;;19.40;99.90;;;;;;5128754;27;20206;-74
2023/07/19 05:46:03;;;;;;;1.80;1.70;;;19.40;99.90;;;;;;5128704;27;20202;-75
2023/07/19 05:48:30;;;;;;;5.13;1.60;;;19.50;99.90;;;;;;5129414;27;20200;-74
2023/07/19 05:50:57;;;;;;;1.77;1.63;;;19.50;99.90;;;;;;5128510;27;20268;-74
2023/07/19 05:53:24;;;;;;;3.63;1.90;;;19.50;99.90;;;;;;5129244;27;20205;-75
2023/07/19 05:55:52;;;;;;;2.53;1.83;;;19.60;99.90;;;;;;5113090;27;20237;-76
2023/07/19 05:58:20;;;;;;;2.73;1.40;;;19.60;99.90;;;;;;5107906;28;20266;-74
2023/07/19 06:00:48;;;;;;;2.50;1.60;;;19.60;99.90;;;;;;5107886;28;20210;-75
2023/07/19 06:03:16;;;;;;;2.40;1.83;;;19.70;99.90;;;;;;5107958;28;20735;-75
2023/07/19 06:05:44;;;;;;;1.97;1.50;;;19.70;99.90;;;;;;5112600;27;20221;-75
2023/07/19 06:08:11;;;;;;;1.87;1.43;;;19.60;99.90;;;;;;5128461;27;20201;-75
2023/07/19 06:10:38;;;;;;;1.80;1.60;;;19.60;99.90;;;;;;5128366;27;20320;-75
2023/07/19 06:13:05;;;;;;;1.70;1.60;;;19.60;99.90;;;;;;5128453;27;20207;-75
2023/07/19 06:15:34;;;;;;;1.80;1.70;;;19.60;99.90;;;;;;5128702;27;20233;-75
2023/07/19 06:18:02;;;;;;;2.73;1.70;;;19.70;99.90;;;;;;5128521;27;20205;-75
2023/07/19 06:20:29;;;;;;;2.03;1.60;;;19.70;99.90;;;;;;5109624;27;20213;-75
2023/07/19 06:22:56;;;;;;;2.00;1.70;;;19.80;99.90;;;;;;5107839;28;20757;-75
2023/07/19 06:25:23;;;;;;;2.87;1.47;;;19.80;99.90;;;;;;5107786;28;20799;-75
2023/07/19 06:27:50;;;;;;;1.43;1.40;;;19.90;99.90;;;;;;5107745;28;20202;-75
2023/07/19 06:30:17;;;;;;;1.70;1.60;;;19.90;99.90;;;;;;5107469;28;20588;-75
2023/07/19 06:32:45;;;;;;;2.60;1.63;;;20.00;99.90;;;;;;5107795;28;20202;-75
2023/07/19 06:35:12;;;;;;;1.70;1.60;;;20.00;99.90;;;;;;5107600;28;20293;-74
2023/07/19 06:37:39;;;;;;;1.57;1.53;;;20.10;99.90;;;;;;5107012;28;20241;-73
2023/07/19 06:40:07;;;;;;;3.33;1.80;;;20.10;99.90;;;;;;5106197;28;20626;-74
2023/07/19 06:42:34;;;;;;;1.55;1.45;;;20.20;99.90;;;;;;5106690;28;20213;-74
2023/07/19 06:45:01;;;;;;;12.57;3.13;;;20.20;99.90;;;;;;5106350;28;20206;-74
2023/07/19 06:47:29;;;;;;;7.25;2.25;;;20.20;99.90;;;;;;5106803;28;20198;-74
2023/07/19 06:49:58;;;;;;;3.70;1.87;;;20.20;99.90;;;;;;5121540;27;20229;-74
2023/07/19 06:52:25;;;;;;;3.20;1.50;;;20.30;99.90;;;;;;5126015;27;20202;-73
2023/07/19 06:54:52;;;;;;;1.80;1.70;;;20.30;99.90;;;;;;5127681;27;20287;-74
2023/07/19 06:57:20;;;;;;;1.67;1.48;;;20.30;99.90;;;;;;5128377;27;20316;-77
2023/07/19 06:59:49;;;;;;;2.13;1.75;;;20.40;99.90;;;;;;5126883;27;20676;-77
2023/07/19 07:02:18;;;;;;;1.93;1.63;;;20.50;99.90;;;;;;5127304;27;20574;-74
2023/07/19 07:04:45;;;;;;;6.67;2.17;;;20.50;99.90;;;;;;5127130;27;20292;-76
2023/07/19 07:07:15;;;;;;;1.95;1.75;;;20.60;99.90;;;;;;5127698;27;20288;-75
2023/07/19 07:09:42;;;;;;;2.55;1.80;;;20.60;99.90;;;;;;5127236;27;20231;-76
2023/07/19 07:12:10;;;;;;;1.85;1.60;;;20.60;99.90;;;;;;5127234;27;20296;-75
2023/07/19 07:14:37;;;;;;;1.90;1.80;;;20.70;99.90;;;;;;5111366;27;20216;-76
2023/07/19 07:17:04;;;;;;;3.88;1.70;;;20.70;99.90;;;;;;5106517;28;20214;-76
2023/07/19 07:19:31;;;;;;;2.17;1.60;;;20.70;99.90;;;;;;5129056;27;20211;-77
2023/07/19 07:21:58;;;;;;;3.10;2.20;;;20.80;99.90;;;;;;5147790;27;20289;-79
2023/07/19 07:24:27;;;;;;;1.88;1.77;;;20.80;99.90;;;;;;5147975;27;20964;-79
2023/07/19 07:26:54;;;;;;;2.30;2.10;;;20.80;99.90;;;;;;5119302;27;20285;-78
2023/07/19 07:29:20;;;;;;;2.17;1.88;;;20.80;99.90;;;;;;5105068;28;20282;-80
2023/07/19 07:31:47;;;;;;;2.08;1.98;;;20.90;99.90;;;;;;5104721;28;20233;-82
2023/07/19 07:34:15;;;;;;;6.05;1.98;;;21.00;99.90;;;;;;5105205;28;20202;-82
2023/07/19 07:36:42;;;;;;;3.22;2.33;;;21.10;99.90;;;;;;5104884;28;20668;-80
2023/07/19 07:39:09;;;;;;;2.50;2.33;;;21.10;99.90;;;;;;5104793;28;20209;-81
2023/07/19 07:41:37;;;;;;;2.15;1.90;;;21.10;99.90;;;;;;5105058;28;20214;-81
2023/07/19 07:44:04;;;;;;;2.88;2.10;;;21.30;99.90;;;;;;5105086;28;20673;-80
2023/07/19 07:46:31;;;;;;;3.08;1.92;;;21.30;99.90;;;;;;5105484;28;20320;-81
2023/07/19 07:48:59;;;;;;;2.45;2.20;;;21.40;99.90;;;;;;5111532;27;20220;-81
2023/07/19 07:51:27;;;;;;;4.37;1.93;;;21.40;99.90;;;;;;5125853;27;20235;-81
2023/07/19 07:53:54;;;;;;;3.20;2.17;;;21.30;99.90;;;;;;5125665;27;20209;-82
2023/07/19 07:56:22;;;;;;;7.53;2.17;;;21.40;99.90;;;;;;5126349;27;20212;-83
2023/07/19 07:58:50;;;;;;;2.97;2.03;;;21.50;99.90;;;;;;5124743;27;20393;-81
2023/07/19 08:01:17;;;;;;;2.30;2.10;;;21.50;99.90;;;;;;5125341;27;20218;-77
2023/07/19 08:03:44;;;;;;;15.65;3.10;;;21.60;99.90;;;;;;5125017;27;20209;-78
2023/07/19 08:06:11;;;;;;;19.48;3.92;;;21.60;99.90;;;;;;5124759;27;20240;-78
2023/07/19 08:08:38;;;;;;;3.08;2.10;;;21.70;99.90;;;;;;5125177;27;20903;-78
2023/07/19 08:11:05;;;;;;;5.10;2.00;;;21.80;99.90;;;;;;5124740;27;20582;-77
2023/07/19 08:13:33;;;;;;;3.70;1.95;;;21.80;99.90;;;;;;5124897;27;20202;-78
2023/07/19 08:16:06;;;;;;;3.60;1.90;;;21.80;99.90;;;;;;5125016;27;20694;-76
2023/07/19 08:18:33;;;;;;;2.45;2.00;;;21.80;99.90;;;;;;5122324;27;20198;-77
2023/07/19 08:20:59;;;;;;;3.90;2.15;;;21.80;99.90;;;;;;5104753;28;20296;-78
2023/07/19 08:23:26;;;;;;;6.35;2.33;;;21.80;99.90;;;;;;5104163;28;20229;-79
2023/07/19 08:25:56;;;;;;;7.73;2.33;;;21.80;99.90;;;;;;5103850;28;20263;-77
2023/07/19 08:28:24;;;;;;;4.60;2.03;;;21.80;99.90;;;;;;5104082;28;20209;-77
2023/07/19 08:30:51;;;;;;;5.87;2.57;;;21.80;99.90;;;;;;5104001;28;20257;-77
2023/07/19 08:33:19;;;;;;;2.92;2.17;;;21.80;99.90;;;;;;5104245;28;20212;-78
2023/07/19 08:35:46;;;;;;;6.90;2.28;;;21.80;99.90;;;;;;5104148;28;20213;-77
2023/07/19 08:38:13;;;;;;;3.03;2.10;;;22.00;99.90;;;;;;5103824;28;20999;-76
2023/07/19 08:40:40;;;;;;;9.13;2.63;;;22.10;99.90;;;;;;5104015;28;20320;-76
2023/07/19 08:43:08;;;;;;;5.18;1.98;;;22.10;99.90;;;;;;5103606;28;20674;-76
2023/07/19 08:45:37;;;;;;;3.90;2.13;;;22.20;99.90;;;;;;5104414;28;20225;-78
2023/07/19 08:48:04;;;;;;;2.20;1.88;;;22.30;99.90;;;;;;5117274;28;20206;-77
2023/07/19 08:50:34;;;;;;;5.00;1.92;;;22.40;99.90;;;;;;5104626;28;20283;-77
2023/07/19 08:53:02;;;;;;;4.75;2.00;;;22.50;99.70;;;;;;5107361;27;20212;-76
2023/07/19 08:55:30;;;;;;;2.67;2.25;;;22.50;99.70;;;;;;5120181;27;20231;-76
2023/07/19 08:57:57;;;;;;;5.00;2.20;;;22.60;99.90;;;;;;5112553;27;20669;-75
2023/07/19 09:00:27;;;;;;;4.90;2.40;;;22.70;99.90;;;;;;5117016;27;20205;-76
2023/07/19 09:02:54;;;;;;;4.05;2.00;;;22.80;99.70;;;;;;5126549;27;20276;-77
2023/07/19 09:05:21;;;;;;;5.57;2.08;;;22.80;99.90;;;;;;5129066;27;20285;-75
2023/07/19 09:07:50;;;;;;;4.30;2.05;;;22.90;98.70;;;;;;5109525;28;20279;-75
2023/07/19 09:10:19;;;;;;;5.43;2.00;;;22.90;98.80;;;;;;5108994;28;20747;-76
2023/07/19 09:12:47;;;;;;;3.88;1.88;;;22.80;98.90;;;;;;5115088;27;20212;-75
2023/07/19 09:15:14;;;;;;;2.83;2.13;;;22.80;98.90;;;;;;5129646;27;20209;-76
2023/07/19 09:17:42;;;;;;;2.38;2.00;;;22.90;98.80;;;;;;5129878;27;20209;-75
2023/07/19 09:20:11;;;;;;;3.30;1.95;;;22.90;98.80;;;;;;5129814;27;20209;-76
2023/07/19 09:22:39;;;;;;;3.08;2.17;;;23.10;98.20;;;;;;5129668;27;20209;-76
2023/07/19 09:25:10;;;;;;;4.63;2.10;;;23.20;97.90;;;;;;5124344;27;20249;-75
2023/07/19 09:27:37;;;;;;;2.30;2.10;;;23.30;98.10;;;;;;5115743;27;20193;-76
2023/07/19 09:30:08;;;;;;;3.55;1.75;;;23.60;98.00;;;;;;5128770;27;20285;-76
2023/07/19 09:32:35;;;;;;;4.25;2.00;;;23.70;97.40;;;;;;5128954;27;20832;-75
2023/07/19 09:35:05;;;;;;;2.97;2.13;;;23.80;96.90;;;;;;5129397;27;20293;-75
2023/07/19 09:37:33;;;;;;;2.55;1.90;;;23.80;96.70;;;;;;5128941;27;20285;-76
2023/07/19 09:40:02;;;;;;;4.03;2.05;;;23.80;95.60;;;;;;5128803;27;20210;-75
2023/07/19 09:42:31;;;;;;;4.15;1.60;;;23.60;95.10;;;;;;5128702;27;20304;-75
2023/07/19 09:45:00;;;;;;;2.55;1.52;;;23.60;95.40;;;;;;5122484;27;20201;-76
2023/07/19 09:47:27;;;;;;;2.53;1.70;;;23.60;94.60;;;;;;5112081;27;20202;-75
2023/07/19 09:49:55;;;;;;;2.20;1.85;;;23.70;94.40;;;;;;5137374;27;20204;-75
2023/07/19 09:52:25;;;;;;;4.45;1.95;;;23.80;94.80;;;;;;5117968;27;20321;-76
2023/07/19 09:54:53;;;;;;;2.10;1.90;;;24.00;94.90;;;;;;5124817;27;20210;-75
2023/07/19 09:57:22;;;;;;;1.80;1.70;;;24.00;94.20;;;;;;5112359;27;20300;-74
2023/07/19 09:59:53;;;;;;;2.80;1.73;;;24.10;94.30;;;;;;5128256;27;20598;-76
2023/07/19 10:02:22;;;;;;;2.00;1.80;;;24.20;94.70;;;;;;5117323;27;20210;-76
2023/07/19 10:04:50;;;;;;;3.67;2.22;;;24.20;94.90;;;;;;5108046;28;20732;-75
2023/07/19 10:07:20;;;;;;;2.45;1.92;;;24.10;94.30;;;;;;5121313;27;20730;-71
2023/07/19 10:09:49;;;;;;;1.73;1.63;;;24.00;94.10;;;;;;5122525;27;20301;-71
2023/07/19 10:12:27;;;;;;;6.18;2.53;;;24.00;94.70;;;;;;5128572;27;20230;-71
2023/07/19 10:15:01;;;;;;;3.08;1.88;;;24.10;95.40;;;;;;5126767;27;20193;-73
2023/07/19 10:17:30;;;;;;;2.30;2.10;;;24.30;95.30;;;;;;5128812;27;20197;-75
2023/07/19 10:20:08;;;;;;;2.15;1.80;;;24.40;95.00;;;;;;5128620;27;20206;-75
2023/07/19 10:22:49;;;;;;;3.17;1.60;;;24.40;95.00;;;;;;5128001;27;20383;-75
2023/07/19 10:25:21;;;;;;;3.03;2.05;;;24.40;94.10;;;;;;5127864;27;20215;-75
2023/07/19 10:27:56;;;;;;;4.05;2.30;;;24.40;95.10;;;;;;5126328;27;20423;-75
2023/07/19 10:30:48;;;;;;;2.00;1.80;;;24.50;94.80;;;;;;5128698;27;20193;-75
2023/07/19 10:33:16;;;;;;;3.15;1.88;;;24.60;95.30;;;;;;5128855;27;20211;-75
2023/07/19 10:35:44;;;;;;;5.97;2.33;;;24.60;94.30;;;;;;5128189;27;20665;-75
2023/07/19 10:38:15;;;;;;;3.58;2.05;;;24.70;94.60;;;;;;5125416;27;20826;-76
2023/07/19 10:40:45;;;;;;;2.63;1.90;;;24.80;94.30;;;;;;5128385;27;20571;-76
2023/07/19 10:43:12;;;;;;;2.40;2.03;;;24.90;93.90;;;;;;5127981;27;20204;-75
2023/07/19 10:45:41;;;;;;;2.90;1.80;;;24.90;93.60;;;;;;5128231;27;20324;-76
2023/07/19 10:48:09;;;;;;;3.13;1.98;;;25.00;93.80;;;;;;5127398;27;20219;-76
2023/07/19 10:50:36;;;;;;;2.42;1.90;;;25.10;93.60;;;;;;5115135;27;20202;-75
2023/07/19 10:53:03;;;;;;;4.13;2.03;;;25.00;93.30;;;;;;5122834;27;20292;-76
2023/07/19 10:55:30;;;;;;;2.13;2.00;;;25.20;93.20;;;;;;5141532;27;20210;-76
2023/07/19 10:57:57;;;;;;;4.28;2.35;;;25.30;93.30;;;;;;5127494;27;20392;-77
2023/07/19 11:00:24;;;;;;;3.00;1.90;;;25.30;92.60;;;;;;5119796;27;20271;-76
2023/07/19 11:02:54;;;;;;;5.28;2.10;;;25.20;93.00;;;;;;5109637;27;20652;-76
2023/07/19 11:05:21;;;;;;;2.35;2.15;;;25.20;93.10;;;;;;5107741;28;20226;-76
2023/07/19 11:07:50;;;;;;;2.17;2.00;;;25.20;93.00;;;;;;5107532;28;20233;-76
2023/07/19 11:10:17;;;;;;;4.97;2.40;;;25.20;92.50;;;;;;5107522;28;20233;-76
2023/07/19 11:12:45;;;;;;;3.08;2.05;;;25.30;93.00;;;;;;5107237;28;20348;-76
2023/07/19 11:15:12;;;;;;;2.47;2.10;;;25.40;93.30;;;;;;5106949;28;20285;-76
2023/07/19 11:17:39;;;;;;;3.50;2.35;;;25.50;92.60;;;;;;5116647;27;20293;-73
2023/07/19 11:20:12;;;;;;;4.00;2.15;;;25.50;92.80;;;;;;5143677;27;20307;-75
2023/07/19 11:22:39;;;;;;;6.90;2.00;;;25.80;93.50;;;;;;5148255;27;20246;-76
2023/07/19 11:25:12;;;;;;;3.20;2.17;;;26.00;93.60;;;;;;5138562;27;20198;-77
2023/07/19 11:27:40;;;;;;;2.22;2.08;;;26.10;92.80;;;;;;5106102;27;20194;-76
2023/07/19 11:30:08;;;;;;;2.95;1.90;;;26.10;92.20;;;;;;5120238;27;20281;-76
2023/07/19 11:32:35;;;;;;;3.47;2.20;;;25.90;92.20;;;;;;5127037;27;20320;-76
2023/07/19 11:35:02;;;;;;;2.55;2.03;;;25.90;93.20;;;;;;5127257;27;20205;-76
2023/07/19 11:37:33;;;;;;;2.67;1.85;;;25.90;93.10;;;;;;5126914;27;20573;-76
2023/07/19 11:40:04;;;;;;;3.15;1.98;;;26.10;93.00;;;;;;5122235;27;20751;-76
2023/07/19 11:42:46;;;;;;;2.70;2.00;;;26.30;93.60;;;;;;5126785;27;20870;-76
2023/07/19 11:45:15;;;;;;;3.45;2.10;;;26.50;93.10;;;;;;5106295;28;20532;-76
2023/07/19 11:47:43;;;;;;;3.67;2.20;;;26.50;92.60;;;;;;5106769;28;20314;-76
2023/07/19 11:50:10;;;;;;;4.22;2.10;;;26.40;92.40;;;;;;5122969;27;20292;-76
2023/07/19 11:52:47;;;;;;;2.25;2.05;;;26.20;92.30;;;;;;5126632;27;20323;-76
2023/07/19 11:55:15;;;;;;;2.10;1.90;;;26.10;92.60;;;;;;5117442;27;20205;-76
2023/07/19 11:57:43;;;;;;;9.20;2.65;;;26.00;92.90;;;;;;5119873;27;20232;-76
2023/07/19 12:00:14;;;;;;;4.38;2.53;;;25.90;93.10;;;;;;5127023;27;20921;-76
2023/07/19 12:02:43;;;;;;;2.45;2.25;;;25.80;93.00;;;;;;5127082;27;20197;-78
2023/07/19 12:05:11;;;;;;;6.13;2.25;;;25.60;93.40;;;;;;5126832;27;20230;-76
2023/07/19 12:07:38;;;;;;;3.10;2.30;;;25.60;93.20;;;;;;5126849;27;20735;-76
2023/07/19 12:10:08;;;;;;;3.60;1.88;;;25.40;93.30;;;;;;5126493;27;20205;-75
2023/07/19 12:12:36;;;;;;;4.80;2.40;;;25.40;93.40;;;;;;5126765;27;20279;-77
2023/07/19 12:15:06;;;;;;;3.95;2.28;;;25.30;93.00;;;;;;5126377;27;20643;-76
2023/07/19 12:17:34;;;;;;;2.65;1.98;;;25.10;93.10;;;;;;5127037;27;20201;-76
2023/07/19 12:20:01;;;;;;;4.43;2.22;;;25.00;92.90;;;;;;5141796;27;20261;-76
2023/07/19 12:22:28;;;;;;;3.45;2.30;;;24.90;93.20;;;;;;5147477;27;20303;-76
2023/07/19 12:24:55;;;;;;;2.65;2.45;;;24.90;92.80;;;;;;5147212;27;20197;-76
2023/07/19 12:27:24;;;;;;;6.72;2.58;;;24.80;92.80;;;;;;5147076;27;20637;-76
2023/07/19 12:29:50;;;;;;;2.95;2.70;;;24.80;92.90;;;;;;5146819;27;20322;-76
2023/07/19 12:32:18;;;;;;;2.33;2.20;;;24.80;93.00;;;;;;5146955;27;20230;-76
2023/07/19 12:34:45;;;;;;;4.07;2.50;;;24.80;92.50;;;;;;5147250;27;20196;-76
2023/07/19 12:37:13;;;;;;;5.65;2.42;;;24.80;92.70;;;;;;5129458;27;20241;-76
2023/07/19 12:39:40;;;;;;;3.67;2.22;;;24.80;92.60;;;;;;5120102;28;20206;-76
2023/07/19 12:42:08;;;;;;;3.95;2.40;;;24.80;92.60;;;;;;5105808;28;20208;-76
2023/07/19 12:44:36;;;;;;;2.60;2.40;;;24.90;92.40;;;;;;5110049;27;20198;-76
2023/07/19 12:47:04;;;;;;;3.85;2.20;;;25.00;92.50;;;;;;5118819;27;20284;-76
2023/07/19 12:49:32;;;;;;;4.07;2.25;;;25.10;92.00;;;;;;5116278;27;20764;-76